createdAt,value
2023-07-07T00:00:03.094Z,1014.11
2023-07-07T00:05:02.961Z,1014.2
2023-07-07T00:10:03.114Z,1014.25
2023-07-07T00:15:03.051Z,1014.31
2023-07-07T00:20:03.170Z,1014.39
2023-07-07T00:25:03.132Z,1014.48
2023-07-07T00:30:03.256Z,1014.59
2023-07-07T00:35:03.169Z,1014.61
2023-07-07T00:40:03.097Z,1014.63
2023-07-07T00:45:03.055Z,1014.65
2023-07-07T00:50:03.232Z,1014.66
2023-07-07T00:55:03.356Z,1014.7
2023-07-07T01:00:03.268Z,1014.75
2023-07-07T01:05:03.035Z,1014.79
2023-07-07T01:10:03.141Z,1014.81
2023-07-07T01:15:03.061Z,1014.8
2023-07-07T01:20:03.179Z,1014.77
2023-07-07T01:25:03.000Z,1014.77
2023-07-07T01:30:03.158Z,1014.86
2023-07-07T01:35:03.026Z,1014.83
2023-07-07T01:40:03.054Z,1014.8
2023-07-07T01:45:03.080Z,1014.83
2023-07-07T01:50:03.247Z,1014.83
2023-07-07T01:55:03.035Z,1014.83
2023-07-07T02:00:03.078Z,1014.83
2023-07-07T02:05:03.060Z,1014.85
2023-07-07T02:10:03.244Z,1014.88
2023-07-07T02:15:02.959Z,1014.88
2023-07-07T02:20:03.228Z,1014.83
2023-07-07T02:25:03.188Z,1014.88
2023-07-07T02:30:03.145Z,1014.91
2023-07-07T02:35:03.028Z,1014.88
2023-07-07T02:40:03.084Z,1014.9
2023-07-07T02:45:02.971Z,1014.94
2023-07-07T02:50:03.339Z,1014.97
2023-07-07T02:55:03.038Z,1014.97
2023-07-07T03:00:03.254Z,1014.92
2023-07-07T03:05:02.963Z,1014.94
2023-07-07T03:10:03.099Z,1014.93
2023-07-07T03:15:03.241Z,1014.95
2023-07-07T03:20:04.153Z,1014.96
2023-07-07T03:25:03.062Z,1015.06
2023-07-07T03:30:03.109Z,1015.07
2023-07-07T03:35:03.024Z,1015.05
2023-07-07T03:40:03.186Z,1014.96
2023-07-07T03:45:03.042Z,1014.97
2023-07-07T03:50:03.302Z,1014.99
2023-07-07T03:55:03.014Z,1014.98
2023-07-07T04:00:03.468Z,1014.99
2023-07-07T04:05:03.126Z,1014.99
2023-07-07T04:10:04.651Z,1014.99
2023-07-07T04:15:02.955Z,1015.01
2023-07-07T04:20:03.246Z,1015.0
2023-07-07T04:25:03.047Z,1015.04
2023-07-07T04:30:03.329Z,1015.07
2023-07-07T04:35:03.149Z,1015.05
2023-07-07T04:40:03.140Z,1015.05
2023-07-07T04:45:03.052Z,1015.04
2023-07-07T04:50:03.373Z,1015.11
2023-07-07T04:55:03.003Z,1015.17
2023-07-07T05:00:03.218Z,1015.16
2023-07-07T05:05:04.053Z,1015.11
2023-07-07T05:10:03.042Z,1015.09
2023-07-07T05:15:03.016Z,1015.06
2023-07-07T05:20:03.145Z,1015.04
2023-07-07T05:25:03.025Z,1015.0
2023-07-07T05:30:03.035Z,1014.94
2023-07-07T05:35:03.028Z,1014.92
2023-07-07T05:40:03.104Z,1014.89
2023-07-07T05:45:03.077Z,1014.86
2023-07-07T05:50:03.187Z,1014.82
2023-07-07T05:55:02.995Z,1014.82
2023-07-07T06:00:03.064Z,1014.84
2023-07-07T06:05:03.048Z,1014.8
2023-07-07T06:10:03.083Z,1014.7
2023-07-07T06:15:03.043Z,1014.57
2023-07-07T06:20:08.127Z,1014.55
2023-07-07T06:25:03.134Z,1014.48
2023-07-07T06:30:03.045Z,1014.53
2023-07-07T06:35:03.025Z,1014.56
2023-07-07T06:40:03.207Z,1014.47
2023-07-07T06:45:02.976Z,1014.44
2023-07-07T06:50:03.128Z,1014.4
2023-07-07T06:55:03.016Z,1014.4
2023-07-07T07:00:03.164Z,1014.42
2023-07-07T07:05:02.991Z,1014.44
2023-07-07T07:10:03.074Z,1014.41
2023-07-07T07:15:03.077Z,1014.38
2023-07-07T07:20:03.041Z,1014.35
2023-07-07T07:25:02.978Z,1014.31
2023-07-07T07:30:03.040Z,1014.2
2023-07-07T07:35:03.039Z,1014.16
2023-07-07T07:40:03.171Z,1014.11
2023-07-07T07:45:02.970Z,1014.07
2023-07-07T07:50:03.157Z,1014.04
2023-07-07T07:55:03.010Z,1014.0
2023-07-07T08:00:03.151Z,1014.14
2023-07-07T08:05:02.998Z,1014.19
2023-07-07T08:10:03.154Z,1014.28
2023-07-07T08:15:02.991Z,1014.33
2023-07-07T08:20:03.037Z,1014.35
2023-07-07T08:25:03.051Z,1014.37
2023-07-07T08:30:03.385Z,1014.37
2023-07-07T08:35:03.082Z,1014.44
2023-07-07T08:40:03.069Z,1014.48
2023-07-07T08:45:03.099Z,1014.48
2023-07-07T08:50:09.205Z,1014.53
2023-07-07T08:55:02.997Z,1014.48
2023-07-07T09:00:03.192Z,1014.52
2023-07-07T09:05:03.260Z,1014.63
2023-07-07T09:10:03.230Z,1014.7
2023-07-07T09:15:03.016Z,1014.73
2023-07-07T09:20:03.121Z,1014.84
2023-07-07T09:25:03.101Z,1014.86
2023-07-07T09:30:03.177Z,1014.88
2023-07-07T09:35:03.054Z,1014.99
2023-07-07T09:40:03.018Z,1015.02
2023-07-07T09:45:03.038Z,1015.04
2023-07-07T09:50:03.080Z,1015.1
2023-07-07T09:55:03.044Z,1015.12
2023-07-07T10:00:03.163Z,1015.18
2023-07-07T10:05:03.023Z,1015.18
2023-07-07T10:10:03.049Z,1015.16
2023-07-07T10:15:02.995Z,1015.23
2023-07-07T10:20:03.187Z,1015.28
2023-07-07T10:25:03.017Z,1015.28
2023-07-07T10:30:03.177Z,1015.41
2023-07-07T10:35:03.047Z,1015.34
2023-07-07T10:40:03.178Z,1015.47
2023-07-07T10:45:03.094Z,1015.56
2023-07-07T10:50:03.093Z,1015.58
2023-07-07T10:55:03.073Z,1015.62
2023-07-07T11:00:03.036Z,1015.58
2023-07-07T11:05:02.982Z,1015.56
2023-07-07T11:10:03.410Z,1015.56
2023-07-07T11:15:03.079Z,1015.59
2023-07-07T11:20:03.106Z,1015.61
2023-07-07T11:25:03.033Z,1015.68
2023-07-07T11:30:03.101Z,1015.74
2023-07-07T11:35:03.021Z,1015.72
2023-07-07T11:40:04.308Z,1015.75
2023-07-07T11:45:03.077Z,1015.77
2023-07-07T11:50:03.105Z,1015.79
2023-07-07T11:55:03.021Z,1015.83
2023-07-07T12:00:03.182Z,1015.83
2023-07-07T12:05:03.270Z,1015.92
2023-07-07T12:10:03.059Z,1015.98
2023-07-07T12:15:04.000Z,1016.01
2023-07-07T12:20:03.126Z,1016.11
2023-07-07T12:25:03.021Z,1016.24
2023-07-07T12:30:03.174Z,1016.25
2023-07-07T12:35:03.016Z,1016.28
2023-07-07T12:40:03.144Z,1016.28
2023-07-07T12:45:02.956Z,1016.25
2023-07-07T12:50:03.180Z,1016.25
2023-07-07T12:55:03.103Z,1016.22
2023-07-07T13:00:03.227Z,1016.19
2023-07-07T13:05:03.046Z,1016.15
2023-07-07T13:10:03.218Z,1016.2
2023-07-07T13:15:03.001Z,1016.17
2023-07-07T13:20:03.397Z,1016.18
2023-07-07T13:25:03.032Z,1016.18
2023-07-07T13:30:03.101Z,1016.18
2023-07-07T13:35:03.061Z,1016.17
2023-07-07T13:40:03.028Z,1016.17
2023-07-07T13:45:03.184Z,1016.15
2023-07-07T13:50:03.234Z,1016.17
2023-07-07T13:55:03.013Z,1016.17
2023-07-07T14:00:03.174Z,1016.19
2023-07-07T14:05:03.019Z,1016.13
2023-07-07T14:10:03.250Z,1016.09
2023-07-07T14:15:02.960Z,1016.09
2023-07-07T14:20:03.100Z,1015.95
2023-07-07T14:25:03.087Z,1015.88
2023-07-07T14:30:03.142Z,1015.86
2023-07-07T14:35:03.044Z,1015.77
2023-07-07T14:40:03.120Z,1015.75
2023-07-07T14:45:03.001Z,1015.79
2023-07-07T14:50:03.115Z,1015.76
2023-07-07T14:55:03.124Z,1015.69
2023-07-07T15:00:03.249Z,1015.6
2023-07-07T15:05:03.027Z,1015.48
2023-07-07T15:10:03.281Z,1015.37
2023-07-07T15:15:02.994Z,1015.28
2023-07-07T15:20:03.156Z,1015.17
2023-07-07T15:25:02.991Z,1015.1
2023-07-07T15:30:03.121Z,1014.93
2023-07-07T15:35:03.029Z,1014.84
2023-07-07T15:40:03.115Z,1014.76
2023-07-07T15:45:02.979Z,1014.61
2023-07-07T15:50:03.094Z,1014.51
2023-07-07T15:55:03.000Z,1014.37
2023-07-07T16:00:03.119Z,1014.27
2023-07-07T16:05:03.095Z,1014.23
2023-07-07T16:10:03.191Z,1014.07
2023-07-07T16:15:03.178Z,1013.94
2023-07-07T16:20:03.078Z,1013.81
2023-07-07T16:25:02.957Z,1013.67
2023-07-07T16:30:04.384Z,1013.59
2023-07-07T16:35:02.984Z,1013.46
2023-07-07T16:40:04.618Z,1013.38
2023-07-07T16:45:03.020Z,1013.25
2023-07-07T16:50:03.128Z,1013.01
2023-07-07T16:55:02.969Z,1012.89
2023-07-07T17:00:03.124Z,1012.78
2023-07-07T17:05:03.085Z,1012.68
2023-07-07T17:10:03.111Z,1012.62
2023-07-07T17:15:02.993Z,1012.66
2023-07-07T17:20:03.105Z,1012.59
2023-07-07T17:25:03.009Z,1012.67
2023-07-07T17:30:03.302Z,1012.63
2023-07-07T17:35:02.989Z,1012.55
2023-07-07T17:40:04.152Z,1012.46
2023-07-07T17:45:03.004Z,1012.36
2023-07-07T17:50:03.157Z,1012.3
2023-07-07T17:55:03.086Z,1012.2
2023-07-07T18:00:03.116Z,1012.12
2023-07-07T18:05:03.059Z,1012.08
2023-07-07T18:10:03.114Z,1012.07
2023-07-07T18:15:03.095Z,1012.02
2023-07-07T18:20:34.913Z,1012.0
2023-07-07T18:25:03.140Z,1011.97
2023-07-07T18:30:03.220Z,1011.94
2023-07-07T18:40:03.296Z,1011.87
2023-07-07T18:45:03.040Z,1011.84
2023-07-07T18:50:03.116Z,1011.82
2023-07-07T18:55:02.983Z,1011.89
2023-07-07T19:00:03.221Z,1011.87
2023-07-07T19:05:03.006Z,1011.86
2023-07-07T19:10:03.220Z,1011.73
2023-07-07T19:15:02.988Z,1011.65
2023-07-07T19:20:03.156Z,1011.6
2023-07-07T19:25:03.033Z,1011.56
2023-07-07T19:30:03.207Z,1011.49
2023-07-07T19:35:03.018Z,1011.49
2023-07-07T19:40:03.193Z,1011.44
2023-07-07T19:45:03.068Z,1011.41
2023-07-07T19:50:03.112Z,1011.37
2023-07-07T19:55:03.004Z,1011.32
2023-07-07T20:00:03.107Z,1011.35
2023-07-07T20:05:03.027Z,1011.36
2023-07-07T20:10:03.284Z,1011.41
2023-07-07T20:15:03.024Z,1011.4
2023-07-07T20:20:03.105Z,1011.43
2023-07-07T20:25:03.028Z,1011.43
2023-07-07T20:30:03.273Z,1011.47
2023-07-07T20:35:03.235Z,1011.49
2023-07-07T20:40:03.063Z,1011.56
2023-07-07T20:45:03.209Z,1011.62
2023-07-07T20:50:03.108Z,1011.69
2023-07-07T20:55:03.103Z,1011.67
2023-07-07T21:00:03.254Z,1011.71
2023-07-07T21:05:03.055Z,1011.75
2023-07-07T21:10:03.049Z,1011.78
2023-07-07T21:15:03.251Z,1011.68
2023-07-07T21:20:03.169Z,1011.63
2023-07-07T21:25:02.996Z,1011.62
2023-07-07T21:30:03.084Z,1011.7
2023-07-07T21:35:03.001Z,1011.72
2023-07-07T21:40:03.080Z,1011.77
2023-07-07T21:45:03.022Z,1011.79
2023-07-07T21:50:03.225Z,1011.81
2023-07-07T21:55:03.063Z,1011.75
2023-07-07T22:00:03.252Z,1011.58
2023-07-07T22:05:03.045Z,1011.6
2023-07-07T22:10:03.080Z,1011.72
2023-07-07T22:15:03.084Z,1011.79
2023-07-07T22:20:03.273Z,1011.79
2023-07-07T22:25:03.075Z,1011.79
2023-07-07T22:30:03.173Z,1011.83
2023-07-07T22:35:03.107Z,1011.78
2023-07-07T22:40:03.192Z,1011.81
2023-07-07T22:45:03.057Z,1011.85
2023-07-07T22:50:03.353Z,1011.82
2023-07-07T22:55:02.998Z,1011.87
2023-07-07T23:00:03.253Z,1011.85
2023-07-07T23:05:03.002Z,1011.96
2023-07-07T23:10:03.228Z,1012.08
2023-07-07T23:15:03.023Z,1011.97
2023-07-07T23:20:03.182Z,1012.03
2023-07-07T23:25:04.094Z,1012.09
2023-07-07T23:30:03.284Z,1012.08
2023-07-07T23:35:02.954Z,1012.04
2023-07-07T23:40:03.062Z,1011.94
2023-07-07T23:45:03.073Z,1011.9
2023-07-07T23:50:04.142Z,1011.85
2023-07-07T23:55:03.096Z,1011.88
